Terminal Aerodrome Forecast
Issued by NWS

Home | Current Version | Previous Version | Text Only | Print | Product List | Glossary On
Versions: 1 2 3 4 5 6 7 8 9 10 11 12 13 14 15 16 17 18 19 20 21 22
000
FTUS41 KBGM 301100
TAFITH
TAF
KITH 301124Z 3012/3112 17009KT P6SM SCT150
     FM301400 17012KT P6SM SCT080
     FM302200 18010KT P6SM SCT040 BKN120
     FM310600 18007KT P6SM OVC040 PROB30 3108/3112 -SHRA OVC015=

USA.gov is the U.S. government's official web portal to all federal, state and local government web resources and services.